Chandler, IN (47610)

4:43 PM CDT on October 15, 2019 (GMT -0500)
Oak Grove Subdivision | | Change Station

Elev 427 ft 38.00 °N, 87.37 °W | Updated 7 seconds ago

Overcast
Overcast
74.1 °F
Feels Like 76 °F
N
1.3
Wind Variable Wind from WSW
Gusts 2.2 mph

Today
High -- | Low -- °F
--% Chance of Precip.
Yesterday
High -- | Low -- °F
Precip. -- in
Pressure 29.84 in
Visibility 10.0 miles
Clouds Mostly Cloudy 4000 ft
Overcast 6500 ft
Heat Index 76 °F
Dew Point 62 °F
Humidity 66%
Rainfall 0.00 in
Snow Depth Not available.
6:57 AM 6:12 PM
Waning Gibbous, 96% visible
METAR KEVV 152054Z AUTO 20008KT 10SM BKN040 OVC065 24/14 A2985 RMK AO2 SLP104 T02390139 56025
Pressure 29.84 in
Visibility 10.0 miles
Clouds Mostly Cloudy 4000 ft
Overcast 6500 ft
Heat Index 76 °F
Dew Point 62 °F
Humidity 66%
Rainfall 0.00 in
Snow Depth Not available.
6:57 AM 6:12 PM
Waning Gibbous, 96% visible
METAR KEVV 152054Z AUTO 20008KT 10SM BKN040 OVC065 24/14 A2985 RMK AO2 SLP104 T02390139 56025

Get Severe Weather Alerts

Thanks for signing up!

Be on the lookout for a verification email in your inbox.

You'll start receiving the daily forecast at 6 AM.

×

10-Day Weather Forecast

Almanac

Astronomy

Oct. 15, 2019 Rise Set
Actual Time
Civil Twilight
Nautical Twilight
Astronomical Twilight
Moon
Length of Visible Light
Length of Day
Tomorrow will be .
, % of the Moon is Illuminated

Today's Extremes

State Highs State Lows

Community

WunderPhotos

Category 6

Welcome to Category 6. This is the collective home for Weather Underground's featured writeups by Dr. Jeff Masters (right), Bob Henson (left), Chris Burt, and other regular contributors.

Nearby

Air Quality

  Air Quality AQ Index Pollutant
Not available.

Snow Depth

Station Depth Elevation

Earthquake Activity

City Distance Mag. Time & Date
Minimum magnitude displayed is 2.5.

Coastal Water Temperatures

Place Temperature

Stations

Nearby Weather Stations

Station Location Temp. Windchill Dew Point Humidity Wind Precip. Elev Updated Type
                   

Watches & Warnings

There are currently no watches in effect.